Time;durP1;ratioP1;P1;durP2;ratioP2;P2;SDS_P1;SDS_P2;PMS_P1;PMS_P2;Temp;Humidity;BMP_temperature;BMP_pressure;BME280_temperature;BME280_humidity;BME280_pressure;Samples;Min_cycle;Max_cycle;Signal;HPM_P1;HPM_P2
2024/02/10 00:02:41;;;;;;;81.40;47.90;;;;;;;;;;137771;1270;22164;-80
2024/02/10 00:05:45;;;;;;;84.90;49.40;;;;;;;;;;137886;1271;22653;-81
2024/02/10 00:08:47;;;;;;;82.50;48.20;;;;;;;;;;137798;1270;22588;-79
2024/02/10 00:11:50;;;;;;;84.30;49.80;;;;;;;;;;137772;1271;22253;-81
2024/02/10 00:14:52;;;;;;;85.40;51.00;;;;;;;;;;137800;1271;22282;-81
2024/02/10 00:17:55;;;;;;;84.80;49.70;;;;;;;;;;137782;1270;22414;-80
2024/02/10 00:20:57;;;;;;;84.50;49.80;;;;;;;;;;137763;1270;22466;-82
2024/02/10 00:24:00;;;;;;;86.70;51.70;;;;;;;;;;137601;1270;22429;-82
2024/02/10 00:27:02;;;;;;;84.50;51.20;;;;;;;;;;137832;1270;22294;-81
2024/02/10 00:30:05;;;;;;;82.70;49.10;;;;;;;;;;137847;1271;22307;-81
2024/02/10 00:33:09;;;;;;;84.10;50.30;;;;;;;;;;137755;1270;22392;-81
2024/02/10 00:36:11;;;;;;;87.60;51.40;;;;;;;;;;137788;1270;22252;-81
2024/02/10 00:39:14;;;;;;;84.10;50.10;;;;;;;;;;137522;1270;26291;-80
2024/02/10 00:42:17;;;;;;;76.80;47.40;;;;;;;;;;137731;1263;22187;-80
2024/02/10 00:45:21;;;;;;;81.90;48.70;;;;;;;;;;137750;1270;21793;-81
2024/02/10 00:48:26;;;;;;;86.90;50.40;;;;;;;;;;137741;1270;22230;-80
2024/02/10 00:51:30;;;;;;;83.10;50.50;;;;;;;;;;137851;1271;22361;-80
2024/02/10 00:54:32;;;;;;;79.40;48.60;;;;;;;;;;137866;1270;22216;-81
2024/02/10 00:57:35;;;;;;;84.20;50.80;;;;;;;;;;137368;1270;22400;-80
2024/02/10 01:00:37;;;;;;;82.10;50.10;;;;;;;;;;137336;1270;24445;-79
2024/02/10 01:03:43;;;;;;;78.70;49.90;;;;;;;;;;137643;1271;22579;-79
2024/02/10 01:06:47;;;;;;;82.00;51.00;;;;;;;;;;137730;1270;22241;-79
2024/02/10 01:09:49;;;;;;;81.80;49.50;;;;;;;;;;137939;1270;22193;-80
2024/02/10 01:12:52;;;;;;;82.40;50.10;;;;;;;;;;137920;1270;22769;-80
2024/02/10 01:15:55;;;;;;;77.70;48.60;;;;;;;;;;137834;1271;22205;-80
2024/02/10 01:18:58;;;;;;;81.40;51.00;;;;;;;;;;137739;1270;22971;-81
2024/02/10 01:22:01;;;;;;;77.60;47.90;;;;;;;;;;137781;1270;22323;-81
2024/02/10 01:25:04;;;;;;;81.30;49.10;;;;;;;;;;137754;1270;22220;-81
2024/02/10 01:28:06;;;;;;;81.30;48.90;;;;;;;;;;137782;1270;22454;-81
2024/02/10 01:31:09;;;;;;;77.40;48.00;;;;;;;;;;137843;1270;22317;-80
2024/02/10 01:34:11;;;;;;;74.50;48.00;;;;;;;;;;137702;1270;22316;-80
2024/02/10 01:37:17;;;;;;;80.80;50.20;;;;;;;;;;137688;1270;22555;-80
2024/02/10 01:40:19;;;;;;;85.30;49.30;;;;;;;;;;137693;1270;22227;-81
2024/02/10 01:43:22;;;;;;;77.30;47.20;;;;;;;;;;137749;1270;22248;-81
2024/02/10 01:46:24;;;;;;;72.30;47.00;;;;;;;;;;137791;1270;22183;-81
2024/02/10 01:49:27;;;;;;;80.50;48.90;;;;;;;;;;137838;1270;22462;-82
2024/02/10 01:52:29;;;;;;;73.60;47.50;;;;;;;;;;137868;1271;22624;-80
2024/02/10 01:55:32;;;;;;;71.30;45.50;;;;;;;;;;137783;1270;22588;-81
2024/02/10 01:58:34;;;;;;;79.10;47.10;;;;;;;;;;137789;1270;22243;-81
2024/02/10 02:01:37;;;;;;;72.70;46.20;;;;;;;;;;137763;1270;22533;-81
2024/02/10 02:04:39;;;;;;;70.80;45.90;;;;;;;;;;137629;1270;165993;-81
2024/02/10 02:07:42;;;;;;;74.90;47.30;;;;;;;;;;137850;1267;22297;-81
2024/02/10 02:10:44;;;;;;;77.10;47.80;;;;;;;;;;137852;1270;22179;-81
2024/02/10 02:13:47;;;;;;;72.40;46.40;;;;;;;;;;137787;1270;22196;-81
2024/02/10 02:16:49;;;;;;;73.70;46.20;;;;;;;;;;137767;1270;22316;-81
2024/02/10 02:19:51;;;;;;;74.70;47.30;;;;;;;;;;137824;1270;22428;-80
2024/02/10 02:22:54;;;;;;;71.60;46.00;;;;;;;;;;137714;1270;22140;-81
2024/02/10 02:25:56;;;;;;;69.70;43.70;;;;;;;;;;137876;1270;22148;-81
2024/02/10 02:28:59;;;;;;;73.00;45.60;;;;;;;;;;137744;1270;22432;-81
2024/02/10 02:32:02;;;;;;;70.10;44.60;;;;;;;;;;137781;1270;22585;-81
2024/02/10 02:35:09;;;;;;;70.50;45.50;;;;;;;;;;137837;1270;22286;-81
2024/02/10 02:38:13;;;;;;;71.90;45.00;;;;;;;;;;137737;1270;22297;-80
2024/02/10 02:41:15;;;;;;;69.30;44.40;;;;;;;;;;137680;1270;22548;-80
2024/02/10 02:44:18;;;;;;;72.80;44.50;;;;;;;;;;137738;1270;22994;-80
2024/02/10 02:47:22;;;;;;;66.60;42.30;;;;;;;;;;137816;1270;22249;-81
2024/02/10 02:50:25;;;;;;;66.10;44.50;;;;;;;;;;137814;1270;22228;-81
2024/02/10 02:53:28;;;;;;;69.30;43.70;;;;;;;;;;137827;1263;22736;-81
2024/02/10 02:56:30;;;;;;;68.30;44.20;;;;;;;;;;137806;1270;22193;-79
2024/02/10 02:59:33;;;;;;;71.90;45.10;;;;;;;;;;137802;1270;22208;-81
2024/02/10 03:02:41;;;;;;;66.80;44.40;;;;;;;;;;137802;1270;22378;-79
2024/02/10 03:05:43;;;;;;;63.20;43.70;;;;;;;;;;137801;1270;22269;-80
2024/02/10 03:08:46;;;;;;;66.70;44.30;;;;;;;;;;137851;1270;22323;-80
2024/02/10 03:11:49;;;;;;;69.70;43.90;;;;;;;;;;137807;1270;23161;-80
2024/02/10 03:14:51;;;;;;;74.70;45.90;;;;;;;;;;137845;1270;22388;-80
2024/02/10 03:17:54;;;;;;;73.00;47.20;;;;;;;;;;137849;1270;22165;-82
2024/02/10 03:20:57;;;;;;;71.70;46.10;;;;;;;;;;137806;1270;22826;-80
2024/02/10 03:24:03;;;;;;;72.70;45.50;;;;;;;;;;137836;1270;22144;-81
2024/02/10 03:27:05;;;;;;;67.70;45.00;;;;;;;;;;137773;1270;22299;-81
2024/02/10 03:30:09;;;;;;;68.90;44.00;;;;;;;;;;137792;1270;22241;-81
2024/02/10 03:33:11;;;;;;;65.90;44.00;;;;;;;;;;137713;1270;22087;-81
2024/02/10 03:36:15;;;;;;;65.20;41.60;;;;;;;;;;137671;1270;22408;-81
2024/02/10 03:39:19;;;;;;;63.40;42.00;;;;;;;;;;137807;1257;22167;-81
2024/02/10 03:42:21;;;;;;;63.00;39.70;;;;;;;;;;137736;1270;22202;-80
2024/02/10 03:45:25;;;;;;;64.80;41.70;;;;;;;;;;137618;1270;22524;-80
2024/02/10 03:48:28;;;;;;;65.20;41.80;;;;;;;;;;137806;1270;22664;-79
2024/02/10 03:51:30;;;;;;;57.90;39.70;;;;;;;;;;137662;1270;22544;-81
2024/02/10 03:54:33;;;;;;;59.30;40.60;;;;;;;;;;137927;1270;22289;-78
2024/02/10 03:57:35;;;;;;;65.60;41.70;;;;;;;;;;137675;1270;22146;-77
2024/02/10 04:00:38;;;;;;;59.90;40.30;;;;;;;;;;137707;1270;22548;-80
2024/02/10 04:03:42;;;;;;;60.30;40.60;;;;;;;;;;137803;1270;22673;-81
2024/02/10 04:06:46;;;;;;;56.80;39.90;;;;;;;;;;137785;1270;22227;-82
2024/02/10 04:09:48;;;;;;;65.20;40.60;;;;;;;;;;137760;1270;22347;-81
2024/02/10 04:12:51;;;;;;;61.90;40.10;;;;;;;;;;137812;1270;22919;-81
2024/02/10 04:15:55;;;;;;;57.80;39.00;;;;;;;;;;137801;1270;22256;-83
2024/02/10 04:18:59;;;;;;;55.40;39.80;;;;;;;;;;137813;1270;22838;-80
2024/02/10 04:22:03;;;;;;;57.20;39.10;;;;;;;;;;137841;1270;22880;-80
2024/02/10 04:25:09;;;;;;;59.20;39.20;;;;;;;;;;137751;1270;22646;-80
2024/02/10 04:28:12;;;;;;;56.60;37.70;;;;;;;;;;137758;1270;22443;-81
2024/02/10 04:31:14;;;;;;;60.40;40.30;;;;;;;;;;137702;1270;22925;-80
2024/02/10 04:34:18;;;;;;;57.20;37.40;;;;;;;;;;137787;1270;22661;-82
2024/02/10 04:37:20;;;;;;;62.40;39.80;;;;;;;;;;137735;1270;23103;-80
2024/02/10 04:40:24;;;;;;;58.40;38.60;;;;;;;;;;137683;1270;22444;-81
2024/02/10 04:43:26;;;;;;;56.40;37.70;;;;;;;;;;137818;1270;22211;-80
2024/02/10 04:46:30;;;;;;;61.30;39.40;;;;;;;;;;137737;1270;22574;-80
2024/02/10 04:49:33;;;;;;;56.50;38.40;;;;;;;;;;137743;1270;23179;-82
2024/02/10 04:52:35;;;;;;;56.60;38.30;;;;;;;;;;137778;1270;22447;-82
2024/02/10 04:55:41;;;;;;;53.20;37.00;;;;;;;;;;137826;1270;22723;-81
2024/02/10 04:58:43;;;;;;;54.00;36.40;;;;;;;;;;137802;1270;22189;-82
2024/02/10 05:01:46;;;;;;;54.10;36.40;;;;;;;;;;137799;1270;22205;-81
2024/02/10 05:04:50;;;;;;;53.50;36.20;;;;;;;;;;137805;1270;22185;-80
2024/02/10 05:07:55;;;;;;;53.00;37.20;;;;;;;;;;137774;1264;23014;-80
2024/02/10 05:10:58;;;;;;;47.40;34.00;;;;;;;;;;137836;1270;22410;-81
2024/02/10 05:14:00;;;;;;;56.80;36.80;;;;;;;;;;137782;1270;22227;-81
2024/02/10 05:17:03;;;;;;;51.20;36.50;;;;;;;;;;137812;1270;22351;-80
2024/02/10 05:20:13;;;;;;;52.40;36.40;;;;;;;;;;137742;1262;22265;-79
2024/02/10 05:23:16;;;;;;;50.80;35.10;;;;;;;;;;137724;1270;22689;-80
2024/02/10 05:26:19;;;;;;;51.70;36.10;;;;;;;;;;137719;1270;22258;-81
2024/02/10 05:29:21;;;;;;;49.70;35.00;;;;;;;;;;137790;1270;22351;-81
2024/02/10 05:32:24;;;;;;;56.40;36.70;;;;;;;;;;137739;1270;22263;-83
2024/02/10 05:35:29;;;;;;;49.90;35.40;;;;;;;;;;137795;1270;22214;-81
2024/02/10 05:38:32;;;;;;;53.00;34.40;;;;;;;;;;137800;1270;23074;-80
2024/02/10 05:41:34;;;;;;;50.70;34.40;;;;;;;;;;137762;1270;22801;-81
2024/02/10 05:44:37;;;;;;;50.00;34.60;;;;;;;;;;137809;1270;22322;-81
2024/02/10 05:47:40;;;;;;;49.40;34.60;;;;;;;;;;137791;1270;22302;-79
2024/02/10 05:50:42;;;;;;;47.80;35.40;;;;;;;;;;137767;1267;22611;-79
2024/02/10 05:53:46;;;;;;;58.50;38.10;;;;;;;;;;137763;1270;22248;-78
2024/02/10 05:56:49;;;;;;;56.70;38.20;;;;;;;;;;137738;1259;22332;-78
2024/02/10 05:59:52;;;;;;;53.70;38.10;;;;;;;;;;137745;1270;22176;-78
2024/02/10 06:02:55;;;;;;;53.10;35.90;;;;;;;;;;137749;1270;22326;-79
2024/02/10 06:05:59;;;;;;;49.40;36.10;;;;;;;;;;137771;1270;22778;-79
2024/02/10 06:09:01;;;;;;;50.70;34.70;;;;;;;;;;137759;1270;22278;-78
2024/02/10 06:12:04;;;;;;;47.40;33.90;;;;;;;;;;137715;1270;22734;-80
2024/02/10 06:15:09;;;;;;;46.60;33.40;;;;;;;;;;137771;1270;23004;-80
2024/02/10 06:18:12;;;;;;;46.30;32.80;;;;;;;;;;137717;1270;22980;-81
2024/02/10 06:21:15;;;;;;;44.50;31.10;;;;;;;;;;137733;1270;22795;-80
2024/02/10 06:24:19;;;;;;;41.70;30.10;;;;;;;;;;137755;1270;22759;-80
2024/02/10 06:27:22;;;;;;;42.50;30.70;;;;;;;;;;137808;1270;22182;-81
2024/02/10 06:30:25;;;;;;;38.40;28.90;;;;;;;;;;137818;1270;23009;-82
2024/02/10 06:33:28;;;;;;;38.30;29.40;;;;;;;;;;137741;1270;22413;-81
2024/02/10 06:36:31;;;;;;;38.50;29.10;;;;;;;;;;137790;1270;22242;-82
2024/02/10 06:39:34;;;;;;;37.90;28.30;;;;;;;;;;137827;1270;22191;-81
2024/02/10 06:42:36;;;;;;;36.70;27.90;;;;;;;;;;137734;1270;22429;-83
2024/02/10 06:45:39;;;;;;;37.90;27.40;;;;;;;;;;138008;1270;22293;-82
2024/02/10 06:48:42;;;;;;;36.00;26.90;;;;;;;;;;138007;1270;22328;-82
2024/02/10 06:51:44;;;;;;;40.50;28.50;;;;;;;;;;137855;1266;22600;-83
2024/02/10 06:54:49;;;;;;;38.70;25.50;;;;;;;;;;137834;1270;22240;-83
2024/02/10 06:57:52;;;;;;;36.90;25.30;;;;;;;;;;137689;1270;22249;-84
2024/02/10 07:00:55;;;;;;;35.50;25.80;;;;;;;;;;137791;1270;22859;-83
2024/02/10 07:03:57;;;;;;;33.70;26.70;;;;;;;;;;137780;1270;22286;-83
2024/02/10 07:07:03;;;;;;;35.80;25.30;;;;;;;;;;137771;1270;22277;-83
2024/02/10 07:10:05;;;;;;;32.00;24.00;;;;;;;;;;137825;1270;22872;-83
2024/02/10 07:13:08;;;;;;;29.30;21.50;;;;;;;;;;137783;1266;22216;-83
2024/02/10 07:16:11;;;;;;;26.20;21.10;;;;;;;;;;137820;1270;22313;-83
2024/02/10 07:19:14;;;;;;;26.50;20.20;;;;;;;;;;137840;1270;22174;-82
2024/02/10 07:22:17;;;;;;;25.90;19.20;;;;;;;;;;137835;1270;22736;-82
2024/02/10 07:25:21;;;;;;;24.10;19.70;;;;;;;;;;137855;1270;22272;-83
2024/02/10 07:28:24;;;;;;;22.70;18.10;;;;;;;;;;137820;1270;22314;-83
2024/02/10 07:31:27;;;;;;;21.50;18.20;;;;;;;;;;137858;1270;22316;-83
2024/02/10 07:34:30;;;;;;;21.20;17.30;;;;;;;;;;137833;1270;22403;-83
2024/02/10 07:37:32;;;;;;;21.90;18.60;;;;;;;;;;137844;1265;22264;-82
2024/02/10 07:40:35;;;;;;;28.20;15.70;;;;;;;;;;137850;1270;22241;-82
2024/02/10 07:43:38;;;;;;;24.10;16.50;;;;;;;;;;137813;1270;22226;-83
2024/02/10 07:46:40;;;;;;;28.00;16.70;;;;;;;;;;137812;1270;22211;-82
2024/02/10 07:49:44;;;;;;;25.50;17.90;;;;;;;;;;137789;1270;22404;-84
2024/02/10 07:52:48;;;;;;;34.70;16.50;;;;;;;;;;137763;1270;22451;-83
2024/02/10 07:55:50;;;;;;;30.70;22.00;;;;;;;;;;137766;1270;22285;-83
2024/02/10 07:58:58;;;;;;;33.70;18.10;;;;;;;;;;137829;1270;22623;-82
2024/02/10 08:02:01;;;;;;;22.70;16.20;;;;;;;;;;137792;1270;22634;-82
2024/02/10 08:05:04;;;;;;;18.00;14.90;;;;;;;;;;137847;1270;22359;-83
2024/02/10 08:08:10;;;;;;;18.40;13.70;;;;;;;;;;137830;1270;22572;-83
2024/02/10 08:11:12;;;;;;;25.40;13.60;;;;;;;;;;137813;1266;22605;-84
2024/02/10 08:14:17;;;;;;;21.60;14.70;;;;;;;;;;137776;1270;22632;-80
2024/02/10 08:17:20;;;;;;;16.90;13.40;;;;;;;;;;137804;1266;22315;-79
2024/02/10 08:20:23;;;;;;;16.60;12.80;;;;;;;;;;137839;1270;22347;-80
2024/02/10 08:23:25;;;;;;;14.70;11.90;;;;;;;;;;137824;1270;22710;-80
2024/02/10 08:26:28;;;;;;;14.40;11.70;;;;;;;;;;137830;1270;22325;-80
2024/02/10 08:29:33;;;;;;;14.80;11.70;;;;;;;;;;137882;1270;22364;-79
2024/02/10 08:32:36;;;;;;;15.50;10.90;;;;;;;;;;137827;1270;22825;-79
2024/02/10 08:35:39;;;;;;;13.10;11.00;;;;;;;;;;137845;1270;22282;-79
2024/02/10 08:38:41;;;;;;;16.50;11.50;;;;;;;;;;137839;1270;22243;-80
2024/02/10 08:41:44;;;;;;;16.10;13.90;;;;;;;;;;137798;1270;22470;-80
2024/02/10 08:44:46;;;;;;;16.10;13.70;;;;;;;;;;137830;1270;22271;-80
2024/02/10 08:47:49;;;;;;;14.00;12.50;;;;;;;;;;137843;1270;22216;-79
2024/02/10 08:50:53;;;;;;;15.00;11.80;;;;;;;;;;137837;1270;22348;-80
2024/02/10 08:53:56;;;;;;;13.40;11.80;;;;;;;;;;137794;1270;22146;-79
2024/02/10 08:57:00;;;;;;;16.20;13.50;;;;;;;;;;137869;1270;22271;-80
2024/02/10 09:00:04;;;;;;;16.10;12.90;;;;;;;;;;137841;1270;22299;-80
2024/02/10 09:03:09;;;;;;;16.20;13.10;;;;;;;;;;137838;1263;22264;-81
2024/02/10 09:06:12;;;;;;;14.10;12.50;;;;;;;;;;137836;1270;22782;-79
2024/02/10 09:09:14;;;;;;;14.40;12.90;;;;;;;;;;137876;1270;22314;-79
2024/02/10 09:12:17;;;;;;;16.20;13.40;;;;;;;;;;137883;1270;22343;-81
2024/02/10 09:15:21;;;;;;;16.30;13.20;;;;;;;;;;137819;1270;22683;-81
2024/02/10 09:18:23;;;;;;;15.10;12.60;;;;;;;;;;137886;1270;22948;-81
2024/02/10 09:21:26;;;;;;;20.20;11.80;;;;;;;;;;137852;1263;22280;-81
2024/02/10 09:24:28;;;;;;;24.20;13.00;;;;;;;;;;137869;1270;22245;-80
2024/02/10 09:27:31;;;;;;;22.50;13.20;;;;;;;;;;137851;1270;22221;-81
2024/02/10 09:30:35;;;;;;;31.10;13.50;;;;;;;;;;137832;1264;22223;-81
2024/02/10 09:33:38;;;;;;;;;;;;;;;;;;137893;1266;22374;-81
2024/02/10 09:36:42;;;;;;;36.70;13.60;;;;;;;;;;137861;1270;22222;-81
2024/02/10 09:39:46;;;;;;;27.70;14.50;;;;;;;;;;137929;1270;22187;-81
2024/02/10 09:42:49;;;;;;;;;;;;;;;;;;137502;1270;23055;-82
2024/02/10 09:45:51;;;;;;;24.60;14.70;;;;;;;;;;137744;1265;22419;-81
2024/02/10 09:48:54;;;;;;;17.40;14.80;;;;;;;;;;137909;1270;22347;-80
2024/02/10 09:51:58;;;;;;;20.10;13.60;;;;;;;;;;137885;1270;22393;-81
2024/02/10 09:55:01;;;;;;;;;;;;;;;;;;137905;1270;22367;-81
2024/02/10 09:58:04;;;;;;;21.90;12.20;;;;;;;;;;137841;1270;22756;-82
2024/02/10 10:01:06;;;;;;;18.50;12.70;;;;;;;;;;137919;1270;22202;-81
2024/02/10 10:04:10;;;;;;;13.80;11.40;;;;;;;;;;137886;1270;22646;-80
2024/02/10 10:07:12;;;;;;;17.00;11.20;;;;;;;;;;137770;1270;22269;-81
2024/02/10 10:10:15;;;;;;;15.20;11.60;;;;;;;;;;137818;1270;22534;-81
2024/02/10 10:13:17;;;;;;;33.80;14.40;;;;;;;;;;137881;1270;22227;-77
2024/02/10 10:16:21;;;;;;;334.80;283.90;;;;;;;;;;137944;1270;22255;-80
2024/02/10 10:19:26;;;;;;;46.20;34.40;;;;;;;;;;137890;1270;22425;-80
2024/02/10 10:22:29;;;;;;;17.10;15.00;;;;;;;;;;137919;1271;22586;-81
2024/02/10 10:25:32;;;;;;;15.00;12.90;;;;;;;;;;137890;1270;22201;-81
2024/02/10 10:28:34;;;;;;;16.90;13.70;;;;;;;;;;137840;1270;22236;-81
2024/02/10 10:31:37;;;;;;;15.00;11.70;;;;;;;;;;137876;1270;22369;-81
2024/02/10 10:34:40;;;;;;;15.10;13.00;;;;;;;;;;137899;1270;22808;-81
2024/02/10 10:37:42;;;;;;;15.00;13.00;;;;;;;;;;137867;1270;22312;-81
2024/02/10 10:40:45;;;;;;;14.90;11.60;;;;;;;;;;137903;1270;22222;-81
2024/02/10 10:43:47;;;;;;;16.90;11.10;;;;;;;;;;137821;1270;22279;-81
2024/02/10 10:46:51;;;;;;;12.10;10.80;;;;;;;;;;137887;1270;22230;-81
2024/02/10 10:49:54;;;;;;;16.40;11.10;;;;;;;;;;137851;1270;22214;-81
2024/02/10 10:52:56;;;;;;;11.00;9.90;;;;;;;;;;137851;1265;22392;-80
2024/02/10 10:55:59;;;;;;;13.40;11.10;;;;;;;;;;137872;1270;22339;-80
2024/02/10 10:59:02;;;;;;;11.60;10.40;;;;;;;;;;137822;1270;22239;-78
2024/02/10 11:02:04;;;;;;;13.30;9.80;;;;;;;;;;137844;1270;22675;-80
2024/02/10 11:05:07;;;;;;;10.90;9.80;;;;;;;;;;137829;1270;22362;-81
2024/02/10 11:08:13;;;;;;;13.70;10.30;;;;;;;;;;137826;1270;22251;-81
2024/02/10 11:11:15;;;;;;;13.60;9.50;;;;;;;;;;137839;1270;22248;-80
2024/02/10 11:14:18;;;;;;;12.30;9.10;;;;;;;;;;137869;1270;22338;-81
2024/02/10 11:17:20;;;;;;;11.10;10.00;;;;;;;;;;137850;1270;22252;-79
2024/02/10 11:20:26;;;;;;;12.00;9.60;;;;;;;;;;137871;1264;22178;-80
2024/02/10 11:23:30;;;;;;;10.30;9.30;;;;;;;;;;137828;1270;22342;-81
2024/02/10 11:26:33;;;;;;;10.10;9.20;;;;;;;;;;137826;1270;22230;-79
2024/02/10 11:29:35;;;;;;;11.00;8.90;;;;;;;;;;137780;1270;22214;-80
2024/02/10 11:32:38;;;;;;;9.80;8.80;;;;;;;;;;137847;1271;22286;-80
2024/02/10 11:35:40;;;;;;;10.30;9.20;;;;;;;;;;137875;1270;22173;-80
2024/02/10 11:38:43;;;;;;;14.10;10.70;;;;;;;;;;137870;1271;22979;-80
2024/02/10 11:41:46;;;;;;;12.20;10.50;;;;;;;;;;137861;1270;22254;-80
2024/02/10 11:44:48;;;;;;;14.40;12.90;;;;;;;;;;137910;1270;22752;-81
2024/02/10 11:47:53;;;;;;;13.40;12.00;;;;;;;;;;137932;1270;22599;-81
2024/02/10 11:50:55;;;;;;;;;;;;;;;;;;137922;1271;22442;-80
2024/02/10 11:53:58;;;;;;;11.60;10.50;;;;;;;;;;137901;1271;22361;-80
2024/02/10 11:57:03;;;;;;;12.40;10.00;;;;;;;;;;137897;1270;22284;-79
2024/02/10 12:00:06;;;;;;;11.70;10.30;;;;;;;;;;137847;1270;22467;-79
2024/02/10 12:03:08;;;;;;;11.90;9.90;;;;;;;;;;137872;1271;22086;-79
2024/02/10 12:06:13;;;;;;;10.70;9.50;;;;;;;;;;137925;1259;22292;-79
2024/02/10 12:09:15;;;;;;;;;;;;;;;;;;137834;1269;22295;-79
2024/02/10 12:12:18;;;;;;;13.00;8.80;;;;;;;;;;137798;1271;22736;-79
2024/02/10 12:15:20;;;;;;;9.70;8.50;;;;;;;;;;137805;1270;22197;-78
2024/02/10 12:18:25;;;;;;;10.30;8.60;;;;;;;;;;137795;1270;22357;-78
2024/02/10 12:21:27;;;;;;;12.30;9.20;;;;;;;;;;137832;1271;23136;-79
2024/02/10 12:24:30;;;;;;;11.00;8.30;;;;;;;;;;137812;1269;22265;-78
2024/02/10 12:27:32;;;;;;;10.60;9.50;;;;;;;;;;137819;1270;22378;-79
2024/02/10 12:30:34;;;;;;;9.90;8.40;;;;;;;;;;137843;1270;22324;-79
2024/02/10 12:33:42;;;;;;;11.40;9.10;;;;;;;;;;137858;1271;22227;-79
2024/02/10 12:36:45;;;;;;;12.40;9.30;;;;;;;;;;137802;1270;22419;-79
2024/02/10 12:39:47;;;;;;;10.40;9.30;;;;;;;;;;137843;1270;22329;-79
2024/02/10 12:42:50;;;;;;;11.90;9.50;;;;;;;;;;137828;1271;22549;-78
2024/02/10 12:45:55;;;;;;;13.90;10.60;;;;;;;;;;137890;1271;22212;-78
2024/02/10 12:48:57;;;;;;;11.50;10.30;;;;;;;;;;137855;1271;22722;-80
2024/02/10 12:52:00;;;;;;;14.70;12.40;;;;;;;;;;137875;1270;22857;-79
2024/02/10 12:55:04;;;;;;;20.80;16.80;;;;;;;;;;137852;1270;22287;-80
2024/02/10 12:58:06;;;;;;;13.00;10.70;;;;;;;;;;137946;1270;22222;-79
2024/02/10 13:01:08;;;;;;;13.90;10.60;;;;;;;;;;137899;1270;22754;-79
2024/02/10 13:04:11;;;;;;;13.20;10.10;;;;;;;;;;137826;1268;22455;-78
2024/02/10 13:07:15;;;;;;;12.90;9.60;;;;;;;;;;137789;1271;22822;-78
2024/02/10 13:10:21;;;;;;;11.90;9.30;;;;;;;;;;137794;1271;22238;-78
2024/02/10 13:13:23;;;;;;;16.00;9.50;;;;;;;;;;137812;1270;22576;-78
2024/02/10 13:16:26;;;;;;;17.80;11.40;;;;;;;;;;137824;1270;22225;-79
2024/02/10 13:19:28;;;;;;;14.20;11.70;;;;;;;;;;137827;1270;22845;-79
2024/02/10 13:22:31;;;;;;;13.60;10.10;;;;;;;;;;137810;1270;22186;-80
2024/02/10 13:25:33;;;;;;;15.10;10.70;;;;;;;;;;137772;1271;22551;-80
2024/02/10 13:28:38;;;;;;;12.40;9.90;;;;;;;;;;137865;1271;22633;-81
2024/02/10 13:31:41;;;;;;;12.20;10.30;;;;;;;;;;137697;1270;22711;-81
2024/02/10 13:34:48;;;;;;;13.70;10.90;;;;;;;;;;137843;1270;22210;-81
2024/02/10 14:01:12;;;;;;;15.40;11.50;;;;;;;;;;137841;1271;22745;-80
2024/02/10 14:04:15;;;;;;;15.70;11.50;;;;;;;;;;137618;1271;450410;-78
2024/02/10 14:07:59;;;;;;;15.70;12.30;;;;;;;;;;137809;1271;22504;-81
2024/02/10 14:10:46;;;;;;;17.30;13.70;;;;;;;;;;137831;1270;22550;-81
2024/02/10 14:13:51;;;;;;;20.60;14.00;;;;;;;;;;137767;1271;22720;-78
2024/02/10 14:17:09;;;;;;;18.90;14.40;;;;;;;;;;137768;1270;22198;-80
2024/02/10 14:20:18;;;;;;;19.90;15.10;;;;;;;;;;137852;1271;22201;-81
2024/02/10 14:23:24;;;;;;;18.40;15.50;;;;;;;;;;137839;1271;22410;-82
2024/02/10 14:26:36;;;;;;;19.70;16.10;;;;;;;;;;137826;1270;23061;-82
2024/02/10 14:29:39;;;;;;;23.10;16.90;;;;;;;;;;137823;1271;22342;-81
2024/02/10 14:32:42;;;;;;;24.20;17.50;;;;;;;;;;137853;1271;22261;-81
2024/02/10 14:35:49;;;;;;;25.50;18.00;;;;;;;;;;137809;1270;22241;-80
2024/02/10 14:39:06;;;;;;;24.60;18.60;;;;;;;;;;137821;1271;22720;-80
2024/02/10 14:42:09;;;;;;;25.70;18.30;;;;;;;;;;137840;1271;22325;-80
2024/02/10 14:45:20;;;;;;;21.10;17.00;;;;;;;;;;137830;1271;22527;-82
2024/02/10 14:48:23;;;;;;;39.90;35.70;;;;;;;;;;137859;1271;22200;-81
2024/02/10 14:51:25;;;;;;;27.20;17.60;;;;;;;;;;137821;1270;22203;-81
2024/02/10 14:54:30;;;;;;;28.80;18.80;;;;;;;;;;137835;1271;22333;-80
2024/02/10 14:57:33;;;;;;;22.90;17.70;;;;;;;;;;137878;1271;22353;-81
2024/02/10 15:00:35;;;;;;;25.70;17.80;;;;;;;;;;137929;1270;22156;-81
2024/02/10 15:03:38;;;;;;;25.70;18.50;;;;;;;;;;137874;1270;22236;-78
2024/02/10 15:06:41;;;;;;;27.40;19.50;;;;;;;;;;137878;1271;23012;-80
2024/02/10 15:09:43;;;;;;;28.60;18.10;;;;;;;;;;137795;1271;22227;-80
2024/02/10 15:12:46;;;;;;;28.10;19.30;;;;;;;;;;137832;1270;22557;-81
2024/02/10 15:15:48;;;;;;;24.80;18.50;;;;;;;;;;137900;1271;22282;-81
2024/02/10 15:18:51;;;;;;;23.20;18.70;;;;;;;;;;137913;1271;22593;-81
2024/02/10 15:21:58;;;;;;;25.90;20.10;;;;;;;;;;137656;1270;22498;-84
2024/02/10 15:25:03;;;;;;;26.50;19.50;;;;;;;;;;137802;1271;22413;-79
2024/02/10 15:28:11;;;;;;;24.80;19.20;;;;;;;;;;137851;1271;22545;-81
2024/02/10 15:31:18;;;;;;;28.60;20.80;;;;;;;;;;137895;1271;22713;-80
2024/02/10 15:34:21;;;;;;;29.40;20.60;;;;;;;;;;137917;1270;23062;-82
2024/02/10 15:37:23;;;;;;;27.10;20.20;;;;;;;;;;137720;1270;22248;-80
2024/02/10 15:40:26;;;;;;;27.00;19.40;;;;;;;;;;137862;1270;22190;-80
2024/02/10 15:43:30;;;;;;;27.00;20.80;;;;;;;;;;137908;1271;22205;-80
2024/02/10 15:46:36;;;;;;;27.30;20.60;;;;;;;;;;137934;1270;22763;-80
2024/02/10 15:49:41;;;;;;;29.40;21.80;;;;;;;;;;137830;1271;22182;-81
2024/02/10 15:52:45;;;;;;;31.70;21.10;;;;;;;;;;137854;1271;22515;-80
2024/02/10 15:55:48;;;;;;;29.30;21.20;;;;;;;;;;137808;1271;22124;-80
2024/02/10 15:58:54;;;;;;;32.60;21.50;;;;;;;;;;137826;1270;22267;-80
2024/02/10 16:01:56;;;;;;;28.90;22.30;;;;;;;;;;137811;1270;22406;-80
2024/02/10 16:04:58;;;;;;;32.70;22.70;;;;;;;;;;137879;1271;22279;-79
2024/02/10 16:08:01;;;;;;;34.00;22.90;;;;;;;;;;137506;1271;22372;-79
2024/02/10 16:11:04;;;;;;;32.20;22.90;;;;;;;;;;137883;1270;22837;-80
2024/02/10 16:14:06;;;;;;;33.20;24.30;;;;;;;;;;137949;1271;22271;-80
2024/02/10 16:17:12;;;;;;;33.10;24.10;;;;;;;;;;137904;1271;22624;-79
2024/02/10 16:20:17;;;;;;;33.40;24.10;;;;;;;;;;137720;1270;22237;-80
2024/02/10 16:23:20;;;;;;;40.80;24.60;;;;;;;;;;137992;1271;22214;-81
2024/02/10 16:26:22;;;;;;;33.20;21.60;;;;;;;;;;137800;1271;24256;-80
2024/02/10 16:29:25;;;;;;;49.10;23.50;;;;;;;;;;137894;1270;22407;-81
2024/02/10 16:32:28;;;;;;;38.30;25.10;;;;;;;;;;137941;1270;22132;-81
2024/02/10 16:35:30;;;;;;;36.20;23.50;;;;;;;;;;137706;1270;23375;-80
2024/02/10 16:38:34;;;;;;;44.50;23.00;;;;;;;;;;137845;1267;22151;-80
2024/02/10 16:41:36;;;;;;;49.60;24.80;;;;;;;;;;137839;1270;22560;-81
2024/02/10 16:44:39;;;;;;;42.90;24.30;;;;;;;;;;137786;1270;22733;-82
2024/02/10 16:47:44;;;;;;;37.50;24.30;;;;;;;;;;137791;1270;22255;-80
2024/02/10 16:50:47;;;;;;;40.30;23.70;;;;;;;;;;137851;1271;22909;-80
2024/02/10 16:53:54;;;;;;;39.40;22.50;;;;;;;;;;137858;1271;22326;-80
2024/02/10 16:56:57;;;;;;;41.60;23.10;;;;;;;;;;137868;1270;22372;-80
2024/02/10 16:59:59;;;;;;;37.90;25.10;;;;;;;;;;137812;1270;22833;-80
2024/02/10 17:03:04;;;;;;;43.80;23.70;;;;;;;;;;137776;1271;22293;-81
2024/02/10 17:06:11;;;;;;;;;;;;;;;;;;137722;1270;22542;-80
2024/02/10 17:09:13;;;;;;;39.20;24.10;;;;;;;;;;137715;1270;22295;-80
2024/02/10 17:12:16;;;;;;;46.00;25.30;;;;;;;;;;137826;1270;22281;-81
2024/02/10 17:15:18;;;;;;;44.00;24.70;;;;;;;;;;137785;1270;22676;-81
2024/02/10 17:18:21;;;;;;;36.80;23.40;;;;;;;;;;137787;1270;22277;-80
2024/02/10 17:21:23;;;;;;;39.90;24.00;;;;;;;;;;137818;1270;22179;-80
2024/02/10 17:24:26;;;;;;;56.40;23.40;;;;;;;;;;137842;1267;22753;-80
2024/02/10 17:27:28;;;;;;;37.70;23.50;;;;;;;;;;137767;1271;22872;-80
2024/02/10 17:30:31;;;;;;;40.50;24.00;;;;;;;;;;137819;1270;22228;-79
2024/02/10 17:33:40;;;;;;;35.40;24.00;;;;;;;;;;137825;1270;22608;-80
2024/02/10 17:36:44;;;;;;;35.60;22.90;;;;;;;;;;137860;1270;22185;-80
2024/02/10 17:39:47;;;;;;;34.40;22.10;;;;;;;;;;137834;1267;22209;-80
2024/02/10 17:42:49;;;;;;;31.00;23.00;;;;;;;;;;137759;1270;22589;-79
2024/02/10 17:45:53;;;;;;;30.00;22.60;;;;;;;;;;137727;1271;22626;-80
2024/02/10 17:48:55;;;;;;;33.60;22.30;;;;;;;;;;137766;1271;22218;-80
2024/02/10 17:51:58;;;;;;;31.20;21.30;;;;;;;;;;137814;1270;22302;-80
2024/02/10 17:55:06;;;;;;;30.60;22.70;;;;;;;;;;137855;1271;22274;-78
2024/02/10 17:58:15;;;;;;;35.70;21.60;;;;;;;;;;137733;1270;22986;-78
2024/02/10 18:01:21;;;;;;;37.30;21.50;;;;;;;;;;137843;1270;22329;-79